createdAt,value
2019-01-13T00:00:11.671Z,76.40
2019-01-13T00:02:53.911Z,75.00
2019-01-13T00:05:36.923Z,74.20
2019-01-13T00:08:19.990Z,72.60
2019-01-13T00:11:02.664Z,71.90
2019-01-13T00:13:46.899Z,72.40
2019-01-13T00:16:29.616Z,72.90
2019-01-13T00:19:17.360Z,72.20
2019-01-13T00:22:02.858Z,73.00
2019-01-13T00:24:45.211Z,74.20
2019-01-13T00:27:27.872Z,76.50
2019-01-13T00:30:10.095Z,75.60
2019-01-13T00:32:53.006Z,75.60
2019-01-13T00:35:35.310Z,76.60
2019-01-13T00:38:20.995Z,76.90
2019-01-13T00:41:02.956Z,77.70
2019-01-13T00:43:45.959Z,77.80
2019-01-13T00:46:31.032Z,78.00
2019-01-13T00:49:13.726Z,79.00
2019-01-13T00:51:56.912Z,79.40
2019-01-13T00:54:39.379Z,79.60
2019-01-13T00:57:21.596Z,79.70
2019-01-13T01:00:05.276Z,80.10
2019-01-13T01:02:48.150Z,79.50
2019-01-13T01:05:31.424Z,80.80
2019-01-13T01:08:14.465Z,81.50
2019-01-13T01:10:57.680Z,82.10
2019-01-13T01:13:40.641Z,82.10
2019-01-13T01:16:23.850Z,82.50
2019-01-13T01:19:05.927Z,82.80
2019-01-13T01:21:49.221Z,83.40
2019-01-13T01:24:31.368Z,83.00
2019-01-13T01:27:13.969Z,82.60
2019-01-13T01:29:56.186Z,83.00
2019-01-13T01:32:38.817Z,83.50
2019-01-13T01:35:20.706Z,83.60
2019-01-13T01:38:03.520Z,84.10
2019-01-13T01:40:45.839Z,84.10
2019-01-13T01:43:28.781Z,84.30
2019-01-13T01:46:11.903Z,84.30
2019-01-13T01:48:55.074Z,83.60
2019-01-13T01:54:25.734Z,82.50
2019-01-13T01:57:09.190Z,79.60
2019-01-13T01:59:53.268Z,78.80
2019-01-13T02:02:36.470Z,80.20
2019-01-13T02:05:19.820Z,80.40
2019-01-13T02:08:02.544Z,81.50
2019-01-13T02:10:45.672Z,81.20
2019-01-13T02:13:28.840Z,80.40
2019-01-13T02:15:58.445Z,80.20
2019-01-13T02:18:41.837Z,80.60
2019-01-13T02:21:24.782Z,80.90
2019-01-13T02:24:07.825Z,80.10
2019-01-13T02:26:53.437Z,80.10
2019-01-13T02:29:35.901Z,81.10
2019-01-13T02:32:18.518Z,80.70
2019-01-13T02:35:00.952Z,81.70
2019-01-13T02:37:44.370Z,81.70
2019-01-13T02:40:26.808Z,81.80
2019-01-13T02:43:09.324Z,82.10
2019-01-13T02:45:55.436Z,82.50
2019-01-13T02:51:28.524Z,84.10
2019-01-13T02:54:11.577Z,83.60
2019-01-13T02:56:54.391Z,84.20
2019-01-13T02:59:37.434Z,84.30
2019-01-13T03:02:20.565Z,85.20
2019-01-13T03:05:03.430Z,84.50
2019-01-13T03:07:46.497Z,84.50
2019-01-13T03:10:29.922Z,85.10
2019-01-13T03:13:12.638Z,86.20
2019-01-13T03:15:56.081Z,87.60
2019-01-13T03:21:20.361Z,90.40
2019-01-13T03:24:03.669Z,90.20
2019-01-13T03:26:46.895Z,90.70
2019-01-13T03:29:29.928Z,90.90
2019-01-13T03:32:15.932Z,90.90
2019-01-13T03:34:58.709Z,90.80
2019-01-13T03:37:41.724Z,91.00
2019-01-13T03:40:24.637Z,91.30
2019-01-13T03:43:12.150Z,91.20
2019-01-13T03:45:55.005Z,91.40
2019-01-13T03:48:39.923Z,91.50
2019-01-13T03:51:22.541Z,91.40
2019-01-13T03:54:04.609Z,91.30
2019-01-13T03:56:47.181Z,91.50
2019-01-13T03:59:29.309Z,91.50
2019-01-13T04:02:15.009Z,91.50
2019-01-13T04:04:57.216Z,91.60
2019-01-13T04:07:26.841Z,91.70
2019-01-13T04:10:16.424Z,91.70
2019-01-13T04:12:58.683Z,91.70
2019-01-13T04:15:42.131Z,91.70
2019-01-13T04:18:24.112Z,91.60
2019-01-13T04:21:07.442Z,91.60
2019-01-13T04:23:49.539Z,91.40
2019-01-13T04:26:32.063Z,91.20
2019-01-13T04:29:15.047Z,91.20
2019-01-13T04:31:58.211Z,91.20
2019-01-13T04:34:40.491Z,91.30
2019-01-13T04:37:23.479Z,91.20
2019-01-13T04:40:06.044Z,91.30
2019-01-13T04:42:50.354Z,91.30
2019-01-13T04:45:32.801Z,91.30
2019-01-13T04:48:15.981Z,91.30
2019-01-13T04:51:01.188Z,91.30
2019-01-13T04:53:44.730Z,91.30
2019-01-13T04:56:27.367Z,91.30
2019-01-13T04:59:10.152Z,91.30
2019-01-13T05:04:39.870Z,91.30
2019-01-13T05:07:22.767Z,91.30
2019-01-13T05:10:05.398Z,91.30
2019-01-13T05:12:48.255Z,91.30
2019-01-13T05:15:31.258Z,91.20
2019-01-13T05:18:14.394Z,91.00
2019-01-13T05:20:57.501Z,90.50
2019-01-13T05:26:22.113Z,90.30
2019-01-13T05:29:05.154Z,90.20
2019-01-13T05:31:48.135Z,90.10
2019-01-13T05:34:31.022Z,90.10
2019-01-13T05:37:14.039Z,90.00
2019-01-13T05:39:56.928Z,90.00
2019-01-13T05:42:38.895Z,89.80
2019-01-13T05:45:21.561Z,89.60
2019-01-13T05:48:04.039Z,89.20
2019-01-13T05:50:33.770Z,88.90
2019-01-13T05:53:22.710Z,89.00
2019-01-13T05:56:04.873Z,88.50
2019-01-13T05:58:52.719Z,88.20
2019-01-13T06:01:36.055Z,87.50
2019-01-13T06:04:18.890Z,87.50
2019-01-13T06:07:00.927Z,87.10
2019-01-13T06:09:43.809Z,86.80
2019-01-13T06:12:26.514Z,86.60
2019-01-13T06:15:09.518Z,86.30
2019-01-13T06:17:52.481Z,85.60
2019-01-13T06:20:34.792Z,85.30
2019-01-13T06:23:20.347Z,84.80
2019-01-13T06:26:02.641Z,84.80
2019-01-13T06:28:45.683Z,84.80
2019-01-13T06:31:27.942Z,84.10
2019-01-13T06:34:10.767Z,84.10
2019-01-13T06:36:53.120Z,84.30
2019-01-13T06:39:35.930Z,84.20
2019-01-13T06:42:18.215Z,84.10
2019-01-13T06:45:03.794Z,83.90
2019-01-13T06:47:48.965Z,83.90
2019-01-13T06:50:31.660Z,84.40
2019-01-13T06:53:13.801Z,84.60
2019-01-13T06:55:59.562Z,84.50
2019-01-13T06:58:42.327Z,84.60
2019-01-13T07:01:25.280Z,84.60
2019-01-13T07:04:08.328Z,84.50
2019-01-13T07:06:51.281Z,84.10
2019-01-13T07:09:34.500Z,83.80
2019-01-13T07:12:17.612Z,84.00
2019-01-13T07:15:00.335Z,84.50
2019-01-13T07:17:43.170Z,84.50
2019-01-13T07:20:26.407Z,84.50
2019-01-13T07:23:09.328Z,84.50
2019-01-13T07:25:52.506Z,85.40
2019-01-13T07:28:35.557Z,85.70
2019-01-13T07:31:18.604Z,85.10
2019-01-13T07:34:01.632Z,85.40
2019-01-13T07:36:44.658Z,85.80
2019-01-13T07:39:30.014Z,85.70
2019-01-13T07:42:12.706Z,85.50
2019-01-13T07:44:55.757Z,85.60
2019-01-13T07:47:38.891Z,86.20
2019-01-13T07:50:21.884Z,86.40
2019-01-13T07:53:04.986Z,87.30
2019-01-13T07:55:48.293Z,87.50
2019-01-13T07:58:34.234Z,87.60
2019-01-13T08:01:20.114Z,87.70
2019-01-13T08:04:08.419Z,87.50
2019-01-13T08:06:51.079Z,87.10
2019-01-13T08:09:33.707Z,86.80
2019-01-13T08:12:17.123Z,87.60
2019-01-13T08:14:59.555Z,87.80
2019-01-13T08:17:42.910Z,88.20
2019-01-13T08:20:25.497Z,88.20
2019-01-13T08:23:10.971Z,88.20
2019-01-13T08:25:53.109Z,88.10
2019-01-13T08:28:35.915Z,88.00
2019-01-13T08:31:19.128Z,87.50
2019-01-13T08:34:01.918Z,87.20
2019-01-13T08:36:44.799Z,86.80
2019-01-13T08:39:27.669Z,86.50
2019-01-13T08:42:10.678Z,86.40
2019-01-13T08:44:56.943Z,86.30
2019-01-13T08:47:43.125Z,87.10
2019-01-13T08:50:25.983Z,87.20
2019-01-13T08:53:09.487Z,87.80
2019-01-13T08:55:52.287Z,88.60
2019-01-13T08:58:35.319Z,88.80
2019-01-13T09:01:18.205Z,88.80
2019-01-13T09:04:00.854Z,89.00
2019-01-13T09:06:43.944Z,89.00
2019-01-13T09:09:26.638Z,88.90
2019-01-13T09:12:09.913Z,88.80
2019-01-13T09:14:52.619Z,88.80
2019-01-13T09:17:35.900Z,88.60
2019-01-13T09:20:18.821Z,88.40
2019-01-13T09:23:01.715Z,88.30
2019-01-13T09:25:44.275Z,88.40
2019-01-13T09:28:26.431Z,88.70
2019-01-13T09:31:09.739Z,88.00
2019-01-13T09:33:54.845Z,87.80
2019-01-13T09:36:37.469Z,87.80
2019-01-13T09:39:20.542Z,87.70
2019-01-13T09:42:03.441Z,88.10
2019-01-13T09:44:47.560Z,87.90
2019-01-13T09:47:30.629Z,88.20
2019-01-13T09:50:20.303Z,88.10
2019-01-13T09:53:02.953Z,87.90
2019-01-13T09:55:45.454Z,87.40
2019-01-13T09:58:31.116Z,87.90
2019-01-13T10:04:03.675Z,87.60
2019-01-13T10:06:48.043Z,87.70
2019-01-13T10:09:33.589Z,87.50
2019-01-13T10:12:19.538Z,87.80
2019-01-13T10:15:05.002Z,88.40
2019-01-13T10:17:51.109Z,88.90
2019-01-13T10:20:34.279Z,89.60
2019-01-13T10:23:20.106Z,89.10
2019-01-13T10:26:03.008Z,89.50
2019-01-13T10:28:46.034Z,89.70
2019-01-13T10:31:29.029Z,89.80
2019-01-13T10:34:11.996Z,89.80
2019-01-13T10:36:55.108Z,90.00
2019-01-13T10:39:38.218Z,90.00
2019-01-13T10:42:20.952Z,89.80
2019-01-13T10:45:08.542Z,89.80
2019-01-13T10:47:51.166Z,89.20
2019-01-13T10:50:33.724Z,89.10
2019-01-13T10:53:16.478Z,88.90
2019-01-13T10:55:58.959Z,88.40
2019-01-13T10:58:41.707Z,87.90
2019-01-13T11:01:24.784Z,87.90
2019-01-13T11:04:07.130Z,88.00
2019-01-13T11:06:49.668Z,87.90
2019-01-13T11:09:31.858Z,87.90
2019-01-13T11:12:14.624Z,88.50
2019-01-13T11:14:56.934Z,88.80
2019-01-13T11:17:42.689Z,89.20
2019-01-13T11:20:25.337Z,89.50
2019-01-13T11:23:08.392Z,89.70
2019-01-13T11:25:51.071Z,89.70
2019-01-13T11:28:34.287Z,89.40
2019-01-13T11:31:17.484Z,89.50
2019-01-13T11:34:00.397Z,89.80
2019-01-13T11:36:43.351Z,89.30
2019-01-13T11:39:26.513Z,89.10
2019-01-13T11:42:09.726Z,88.70
2019-01-13T11:44:52.622Z,88.90
2019-01-13T11:47:35.773Z,89.00
2019-01-13T11:50:18.957Z,89.10
2019-01-13T11:53:02.506Z,88.90
2019-01-13T11:55:45.645Z,89.20
2019-01-13T11:58:28.773Z,88.70
2019-01-13T12:01:11.622Z,88.90
2019-01-13T12:03:54.183Z,88.50
2019-01-13T12:06:37.279Z,89.00
2019-01-13T12:09:20.112Z,90.00
2019-01-13T12:12:03.387Z,90.00
2019-01-13T12:14:46.638Z,90.00
2019-01-13T12:17:29.718Z,89.60
2019-01-13T12:20:12.838Z,89.40
2019-01-13T12:22:55.210Z,89.90
2019-01-13T12:25:37.731Z,89.40
2019-01-13T12:28:20.703Z,89.90
2019-01-13T12:31:03.510Z,90.00
2019-01-13T12:33:46.677Z,89.90
2019-01-13T12:36:29.213Z,89.50
2019-01-13T12:39:16.665Z,89.90
2019-01-13T12:41:59.214Z,89.90
2019-01-13T12:44:41.873Z,90.20
2019-01-13T12:47:24.990Z,90.30
2019-01-13T12:50:07.932Z,90.30
2019-01-13T12:52:53.767Z,90.60
2019-01-13T12:55:36.817Z,90.60
2019-01-13T12:58:19.551Z,90.50
2019-01-13T13:01:02.543Z,90.50
2019-01-13T13:03:45.553Z,90.60
2019-01-13T13:06:28.551Z,90.70
2019-01-13T13:09:11.171Z,90.70
2019-01-13T13:11:54.435Z,90.80
2019-01-13T13:14:37.626Z,90.80
2019-01-13T13:17:20.286Z,90.80
2019-01-13T13:20:03.320Z,90.80
2019-01-13T13:22:46.169Z,90.60
2019-01-13T13:25:32.067Z,90.70
2019-01-13T13:28:13.474Z,90.90
2019-01-13T13:30:55.691Z,90.80
2019-01-13T13:33:38.897Z,90.70
2019-01-13T13:36:21.931Z,90.70
2019-01-13T13:39:05.414Z,90.50
2019-01-13T13:41:50.573Z,90.50
2019-01-13T13:44:33.564Z,90.50
2019-01-13T13:47:15.657Z,90.40
2019-01-13T13:49:58.503Z,90.40
2019-01-13T13:52:43.457Z,90.30
2019-01-13T13:55:26.017Z,90.30
2019-01-13T13:58:11.245Z,90.20
2019-01-13T14:00:54.620Z,90.10
2019-01-13T14:03:36.973Z,90.00
2019-01-13T14:06:19.761Z,90.00
2019-01-13T14:09:02.138Z,89.70
2019-01-13T14:11:45.646Z,89.60
2019-01-13T14:14:28.129Z,89.20
2019-01-13T14:17:10.895Z,89.30
2019-01-13T14:19:53.277Z,89.10
2019-01-13T14:22:35.939Z,89.00
2019-01-13T14:25:17.930Z,88.80
2019-01-13T14:28:00.747Z,88.70
2019-01-13T14:30:42.969Z,88.60
2019-01-13T14:33:26.210Z,88.40
2019-01-13T14:36:08.333Z,88.30
2019-01-13T14:38:51.014Z,88.20
2019-01-13T14:41:33.130Z,88.10
2019-01-13T14:44:19.426Z,87.90
2019-01-13T14:47:02.788Z,87.90
2019-01-13T14:49:45.382Z,87.90
2019-01-13T14:52:28.656Z,87.80
2019-01-13T14:55:15.710Z,87.90
2019-01-13T14:57:58.499Z,88.00
2019-01-13T15:00:41.352Z,88.10
2019-01-13T15:03:24.137Z,88.30
2019-01-13T15:06:07.453Z,88.40
2019-01-13T15:08:50.534Z,88.50
2019-01-13T15:11:34.556Z,88.40
2019-01-13T15:14:04.159Z,88.30
2019-01-13T15:16:46.770Z,88.20
2019-01-13T15:19:29.861Z,88.00
2019-01-13T15:22:12.920Z,87.70
2019-01-13T15:24:56.020Z,87.60
2019-01-13T15:27:39.185Z,87.60
2019-01-13T15:30:22.115Z,87.60
2019-01-13T15:33:05.174Z,87.90
2019-01-13T15:35:48.163Z,88.20
2019-01-13T15:38:31.272Z,89.00
2019-01-13T15:41:14.401Z,89.10
2019-01-13T15:43:56.610Z,89.30
2019-01-13T15:46:44.276Z,89.30
2019-01-13T15:49:27.026Z,89.50
2019-01-13T15:52:13.152Z,89.70
2019-01-13T15:54:56.081Z,90.00
2019-01-13T16:00:26.936Z,90.10
2019-01-13T16:03:09.894Z,90.20
2019-01-13T16:05:52.757Z,90.20
2019-01-13T16:08:39.077Z,90.20
2019-01-13T16:11:22.028Z,90.20
2019-01-13T16:14:05.075Z,90.20
2019-01-13T16:16:48.259Z,90.10
2019-01-13T16:19:31.151Z,90.10
2019-01-13T16:22:14.465Z,90.00
2019-01-13T16:24:57.438Z,90.00
2019-01-13T16:27:40.533Z,89.90
2019-01-13T16:30:23.167Z,89.60
2019-01-13T16:33:05.959Z,89.40
2019-01-13T16:35:49.310Z,89.20
2019-01-13T16:38:32.320Z,89.00
2019-01-13T16:41:15.613Z,89.10
2019-01-13T16:43:58.825Z,89.90
2019-01-13T16:46:43.578Z,89.30
2019-01-13T16:49:26.762Z,90.00
2019-01-13T16:52:09.533Z,90.50
2019-01-13T16:54:52.431Z,90.80
2019-01-13T16:57:35.391Z,90.50
2019-01-13T17:00:21.445Z,90.30
2019-01-13T17:03:04.707Z,90.20
2019-01-13T17:05:50.524Z,90.20
2019-01-13T17:08:33.534Z,90.40
2019-01-13T17:11:16.434Z,90.40
2019-01-13T17:13:59.926Z,90.40
2019-01-13T17:16:45.563Z,90.30
2019-01-13T17:19:28.766Z,90.30
2019-01-13T17:22:11.727Z,90.40
2019-01-13T17:24:55.304Z,90.40
2019-01-13T17:27:38.224Z,90.40
2019-01-13T17:30:21.635Z,90.30
2019-01-13T17:33:04.521Z,90.30
2019-01-13T17:35:47.464Z,90.40
2019-01-13T17:38:33.449Z,90.60
2019-01-13T17:41:16.230Z,90.50
2019-01-13T17:44:00.423Z,90.70
2019-01-13T17:46:46.312Z,90.50
2019-01-13T17:49:30.357Z,91.00
2019-01-13T17:52:17.869Z,90.90
2019-01-13T17:55:00.736Z,90.90
2019-01-13T17:57:44.438Z,90.90
2019-01-13T18:00:30.378Z,90.90
2019-01-13T18:03:13.319Z,91.20
2019-01-13T18:05:57.627Z,91.10
2019-01-13T18:08:40.677Z,91.30
2019-01-13T18:11:23.749Z,91.40
2019-01-13T18:14:09.808Z,91.40
2019-01-13T18:16:52.917Z,91.30
2019-01-13T18:19:38.675Z,91.40
2019-01-13T18:22:21.637Z,91.30
2019-01-13T18:25:03.920Z,91.30
2019-01-13T18:27:46.646Z,91.40
2019-01-13T18:30:29.108Z,91.50
2019-01-13T18:33:14.613Z,91.40
2019-01-13T18:35:56.917Z,91.40
2019-01-13T18:38:40.268Z,91.40
2019-01-13T18:41:23.133Z,91.40
2019-01-13T18:44:06.349Z,91.40
2019-01-13T18:46:49.581Z,91.50
2019-01-13T18:49:32.679Z,91.50
2019-01-13T18:52:16.016Z,91.50
2019-01-13T18:54:58.914Z,91.60
2019-01-13T18:57:42.454Z,91.60
2019-01-13T19:00:25.949Z,91.50
2019-01-13T19:03:08.403Z,91.60
2019-01-13T19:05:51.318Z,91.10
2019-01-13T19:08:34.573Z,91.40
2019-01-13T19:11:17.625Z,91.30
2019-01-13T19:13:55.968Z,91.20
2019-01-13T19:16:26.358Z,90.90
2019-01-13T19:18:56.351Z,90.70
2019-01-13T19:21:26.088Z,90.80
2019-01-13T19:23:55.771Z,90.40
2019-01-13T19:26:25.380Z,90.00
2019-01-13T19:28:55.053Z,89.50
2019-01-13T19:31:24.710Z,88.80
2019-01-13T19:33:54.459Z,88.70
2019-01-13T19:36:24.257Z,89.10
2019-01-13T19:38:53.857Z,88.90
2019-01-13T19:41:23.632Z,87.40
2019-01-13T19:43:53.279Z,87.30
2019-01-13T19:46:22.952Z,87.90
2019-01-13T19:48:52.634Z,87.90
2019-01-13T19:51:22.274Z,87.50
2019-01-13T19:53:51.904Z,88.20
2019-01-13T19:56:21.618Z,87.20
2019-01-13T19:58:51.238Z,87.20
2019-01-13T20:01:20.805Z,88.00
2019-01-13T20:03:50.439Z,88.30
2019-01-13T20:06:20.124Z,87.40
2019-01-13T20:08:49.752Z,87.50
2019-01-13T20:11:19.428Z,88.10
2019-01-13T20:13:49.041Z,88.20
2019-01-13T20:16:18.673Z,88.50
2019-01-13T20:18:48.278Z,88.40
2019-01-13T20:21:17.964Z,88.00
2019-01-13T20:23:48.231Z,88.50
2019-01-13T20:26:17.816Z,89.00
2019-01-13T20:28:47.400Z,88.90
2019-01-13T20:31:17.062Z,89.30
2019-01-13T20:33:46.794Z,88.90
2019-01-13T20:36:16.320Z,88.80
2019-01-13T20:38:45.901Z,88.60
2019-01-13T20:41:15.557Z,88.40
2019-01-13T20:43:45.269Z,88.10
2019-01-13T20:46:14.857Z,87.80
2019-01-13T20:48:45.577Z,86.80
2019-01-13T20:51:15.289Z,86.70
2019-01-13T20:53:44.946Z,86.90
2019-01-13T20:56:14.520Z,86.60
2019-01-13T20:58:44.166Z,86.60
2019-01-13T21:01:13.740Z,86.70
2019-01-13T21:03:43.429Z,86.20
2019-01-13T21:06:12.984Z,85.40
2019-01-13T21:08:42.712Z,85.60
2019-01-13T21:11:12.396Z,85.60
2019-01-13T21:13:41.974Z,85.70
2019-01-13T21:16:11.596Z,85.70
2019-01-13T21:18:41.256Z,85.30
2019-01-13T21:21:10.853Z,85.40
2019-01-13T21:23:40.550Z,85.30
2019-01-13T21:26:10.134Z,85.10
2019-01-13T21:28:39.656Z,84.80
2019-01-13T21:31:09.256Z,84.70
2019-01-13T21:33:38.892Z,84.40
2019-01-13T21:36:08.560Z,84.30
2019-01-13T21:38:38.168Z,84.00
2019-01-13T21:41:07.779Z,83.80
2019-01-13T21:43:37.441Z,83.70
2019-01-13T21:46:07.139Z,83.70
2019-01-13T21:48:36.706Z,83.60
2019-01-13T21:51:06.390Z,83.60
2019-01-13T21:53:35.974Z,82.90
2019-01-13T21:56:05.561Z,83.10
2019-01-13T21:58:35.175Z,82.60
2019-01-13T22:01:06.492Z,82.10
2019-01-13T22:03:36.097Z,81.60
2019-01-13T22:06:05.783Z,81.60
2019-01-13T22:08:35.405Z,80.10
2019-01-13T22:11:04.959Z,79.60
2019-01-13T22:13:34.530Z,80.00
2019-01-13T22:16:04.110Z,79.10
2019-01-13T22:18:33.849Z,79.00
2019-01-13T22:21:03.439Z,78.70
2019-01-13T22:23:33.032Z,77.50
2019-01-13T22:26:02.704Z,77.60
2019-01-13T22:28:32.280Z,76.30
2019-01-13T22:31:01.909Z,76.80
2019-01-13T22:33:31.493Z,76.30
2019-01-13T22:36:01.106Z,76.70
2019-01-13T22:38:30.700Z,76.50
2019-01-13T22:41:00.286Z,75.90
2019-01-13T22:43:29.903Z,74.90
2019-01-13T22:45:59.472Z,74.40
2019-01-13T22:48:29.007Z,73.80
2019-01-13T22:50:58.601Z,73.50
2019-01-13T22:53:28.200Z,73.40
2019-01-13T22:55:57.808Z,74.00
2019-01-13T22:58:27.391Z,73.60
2019-01-13T23:01:07.758Z,72.90
2019-01-13T23:03:37.529Z,72.30
2019-01-13T23:06:07.182Z,72.20
2019-01-13T23:08:36.749Z,70.90
2019-01-13T23:11:06.378Z,71.20
2019-01-13T23:13:35.983Z,70.10
2019-01-13T23:16:05.673Z,71.30
2019-01-13T23:18:35.246Z,70.60
2019-01-13T23:21:04.903Z,71.30
2019-01-13T23:23:34.490Z,70.70
2019-01-13T23:26:04.092Z,70.00
2019-01-13T23:28:33.835Z,69.30
2019-01-13T23:31:03.510Z,69.20
2019-01-13T23:33:33.190Z,69.40
2019-01-13T23:36:03.152Z,69.80
2019-01-13T23:38:32.697Z,69.80
2019-01-13T23:41:02.278Z,69.60
2019-01-13T23:43:32.909Z,69.70
2019-01-13T23:46:02.498Z,69.30
2019-01-13T23:48:32.097Z,69.00
2019-01-13T23:51:01.791Z,68.50
2019-01-13T23:53:31.385Z,68.70
2019-01-13T23:56:00.897Z,68.10
2019-01-13T23:58:30.470Z,68.50
